OPA Logo
 
ASOS:
At:2019.06.26 0955 UTC
Wind:
Viz: 10 mile(s)
Sky: clear
Temp: 46 F (8 C)
DewP: 41 F (5 C)
RH: 81%
Baro: 29.89 in.
ob: KBDN 260955Z AUTO 00000KT 10SM CLR 08/05 A2989 RMK AO2

ASOS: KRDM
At:2019.06.26 0856 UTC
Wind:
Viz: 10 mile(s)
Sky: clear
Temp: 46.0 F (7.8 C)
DewP: 42.1 F (5.6 C)
RH: 85%
Baro: 29.9 in.
ob: KRDM 260856Z AUTO 00000KT 10SM CLR 08/06 A2990 RMK AO2 SLP111 T00780056 58005
Apache-SSL Logo

Valid HTML 4.01!

Central Oregon OPA Chapter

Calendar


Other Calendar pages

Oregon Pilots Association Events Calendar

Washington Pilots Association Events


Web page by: gem@rellim.com